Floresta da Tijuca, Brazil
Current Conditions -  °F | °C
As of 8:00 AM on Monday 26 Jan 2015 (Local Time) from SBRJ Reporting Station
Scattered Clouds Scattered Clouds  
Wind Chill: 82°   Ceiling: Unl
Heat Index: 87°   Visibility: 6mi
Dew Point: 72°   Wind: 5mph
Humidity: 70%   Direction: 10°N
Pressure: 29.88"   Gusts: NA
Location:  22.9°S, 43.21°W
Report Text: SBRJ 261000Z 01004KT 9999 FEW030 SCT080 28/22 Q1012
Loading
Personal Weather Stations






























Interactive Weather Map New forecast layout! Learn more

10-Day Weather Forecast

Advertisements
Track Severe Weather on mobile